Time;durP1;ratioP1;P1;durP2;ratioP2;P2;SDS_P1;SDS_P2;PMS_P1;PMS_P2;Temp;Humidity;BMP_temperature;BMP_pressure;BME280_temperature;BME280_humidity;BME280_pressure;Samples;Min_cycle;Max_cycle;Signal;HPM_P1;HPM_P2
2021/12/06 00:00:30;;;;;;;0.40;0.20;;;2.00;99.90;;;;;;5089959;28;20379;-70
2021/12/06 00:02:58;;;;;;;0.40;0.20;;;2.00;99.90;;;;;;5071681;28;20780;-71
2021/12/06 00:05:25;;;;;;;0.50;0.50;;;2.10;99.90;;;;;;5090815;28;20439;-70
2021/12/06 00:07:51;;;;;;;0.40;0.20;;;2.00;99.90;;;;;;5091127;28;20389;-70
2021/12/06 00:10:17;;;;;;;0.40;0.20;;;1.90;99.90;;;;;;5071751;28;20743;-70
2021/12/06 00:12:43;;;;;;;0.40;0.20;;;1.90;99.90;;;;;;5090924;28;20375;-70
2021/12/06 00:15:11;;;;;;;0.40;0.20;;;1.90;99.90;;;;;;5071815;28;20449;-70
2021/12/06 00:17:38;;;;;;;0.40;0.30;;;1.90;99.90;;;;;;5091089;28;20382;-70
2021/12/06 00:20:09;;;;;;;0.40;0.30;;;1.80;99.90;;;;;;5072379;28;20394;-71
2021/12/06 00:22:35;;;;;;;0.40;0.20;;;1.80;99.90;;;;;;5072752;28;20443;-70
2021/12/06 00:25:01;;;;;;;0.40;0.20;;;1.70;99.90;;;;;;5090762;28;20378;-69
2021/12/06 00:27:27;;;;;;;0.50;0.40;;;1.70;99.90;;;;;;5089758;28;21118;-70
2021/12/06 00:29:54;;;;;;;0.40;0.20;;;1.70;99.90;;;;;;5090640;28;20414;-70
2021/12/06 00:32:21;;;;;;;0.40;0.20;;;1.70;99.90;;;;;;5089804;28;20378;-69
2021/12/06 00:34:47;;;;;;;0.40;0.30;;;1.70;99.90;;;;;;5092554;28;20391;-70
2021/12/06 00:39:51;;;;;;;0.40;0.20;;;1.60;99.90;;;;;;5110884;28;20455;-70
2021/12/06 00:42:19;;;;;;;0.40;0.30;;;1.60;99.90;;;;;;5091983;28;20392;-71
2021/12/06 00:44:45;;;;;;;0.40;0.20;;;1.50;99.90;;;;;;5092615;28;20392;-70
2021/12/06 00:47:10;;;;;;;0.40;0.30;;;1.60;99.90;;;;;;5110476;28;20376;-70
2021/12/06 00:49:36;;;;;;;0.40;0.30;;;1.50;99.90;;;;;;5109367;28;21457;-70
2021/12/06 00:52:02;;;;;;;0.40;0.20;;;1.40;99.90;;;;;;5110733;28;20482;-69
2021/12/06 00:54:30;;;;;;;0.40;0.20;;;1.40;99.90;;;;;;5109941;28;20384;-70
2021/12/06 00:56:56;;;;;;;0.40;0.20;;;1.30;99.90;;;;;;5110387;28;20876;-69
2021/12/06 00:59:22;;;;;;;0.40;0.30;;;1.20;99.90;;;;;;5110337;28;20470;-71
2021/12/06 01:01:47;;;;;;;0.40;0.20;;;1.20;99.90;;;;;;5109881;28;20376;-70
2021/12/06 01:04:15;;;;;;;0.40;0.30;;;1.20;99.90;;;;;;5110481;28;20372;-70
2021/12/06 01:06:41;;;;;;;1.80;0.70;;;1.20;99.90;;;;;;5091556;28;20391;-70
2021/12/06 01:09:07;;;;;;;0.40;0.20;;;1.20;99.90;;;;;;5110470;28;20897;-70
2021/12/06 01:11:32;;;;;;;0.40;0.30;;;1.20;99.90;;;;;;5110212;28;20427;-70
2021/12/06 01:13:58;;;;;;;0.40;0.20;;;1.20;99.90;;;;;;5114793;28;20376;-69
2021/12/06 01:16:25;;;;;;;0.40;0.20;;;1.20;99.90;;;;;;5114544;28;20828;-70
2021/12/06 01:18:50;;;;;;;0.40;0.40;;;1.20;99.90;;;;;;5113911;28;20416;-70
2021/12/06 01:21:27;;;;;;;0.40;0.20;;;1.10;99.90;;;;;;5114518;28;20454;-70
2021/12/06 01:23:58;;;;;;;0.40;0.40;;;1.10;99.90;;;;;;5113990;28;20420;-69
2021/12/06 01:30:01;;;;;;;0.40;0.20;;;1.00;99.90;;;;;;5113665;28;20888;-69
2021/12/06 01:31:53;;;;;;;0.40;0.20;;;1.00;99.90;;;;;;5095162;28;20488;-69
2021/12/06 01:39:49;;;;;;;0.40;0.30;;;1.00;99.90;;;;;;5092951;28;20537;-69
2021/12/06 01:42:15;;;;;;;0.40;0.20;;;1.10;99.90;;;;;;5093738;28;20465;-69
2021/12/06 01:44:45;;;;;;;0.40;0.20;;;1.10;99.90;;;;;;5075618;28;20716;-69
2021/12/06 01:47:15;;;;;;;0.40;0.20;;;1.00;99.90;;;;;;5093272;28;20405;-69
2021/12/06 01:49:44;;;;;;;0.40;0.20;;;1.00;99.90;;;;;;5093180;28;20445;-69
2021/12/06 01:52:18;;;;;;;0.40;0.20;;;0.90;99.90;;;;;;5092685;28;20390;-69
2021/12/06 01:54:44;;;;;;;0.40;0.30;;;0.90;99.90;;;;;;5093595;28;20501;-69
2021/12/06 01:57:10;;;;;;;0.40;0.20;;;0.90;99.90;;;;;;5092400;28;20547;-69
2021/12/06 01:59:36;;;;;;;0.40;0.30;;;0.90;99.90;;;;;;5093463;28;20378;-69
2021/12/06 02:02:02;;;;;;;0.40;0.20;;;0.90;99.90;;;;;;5092367;28;20384;-69
2021/12/06 02:04:30;;;;;;;0.40;0.20;;;0.80;99.90;;;;;;5093317;28;20413;-69
2021/12/06 02:06:59;;;;;;;0.40;0.20;;;0.80;99.90;;;;;;5092764;28;20443;-70
2021/12/06 02:09:27;;;;;;;0.40;0.20;;;0.80;99.90;;;;;;5093594;28;20421;-69
2021/12/06 02:11:57;;;;;;;0.40;0.20;;;0.80;99.90;;;;;;5093102;28;20416;-69
2021/12/06 02:19:31;;;;;;;0.40;0.20;;;0.80;99.90;;;;;;5092299;28;20374;-69
2021/12/06 02:21:59;;;;;;;0.40;0.20;;;0.70;99.90;;;;;;5093036;28;20393;-69
2021/12/06 02:24:25;;;;;;;0.40;0.20;;;0.80;99.90;;;;;;5091884;28;20416;-69
2021/12/06 02:26:51;;;;;;;0.60;0.60;;;0.80;99.90;;;;;;5092799;28;20371;-69
2021/12/06 02:29:17;;;;;;;0.40;0.20;;;0.90;99.90;;;;;;5092166;28;20425;-69
2021/12/06 02:31:43;;;;;;;0.40;0.20;;;0.90;99.90;;;;;;5092485;28;20809;-69
2021/12/06 02:34:09;;;;;;;0.40;0.20;;;0.90;99.90;;;;;;5074501;28;20829;-70
2021/12/06 02:36:35;;;;;;;0.40;0.20;;;1.00;99.90;;;;;;5094420;28;20388;-69
2021/12/06 02:39:03;;;;;;;0.40;0.30;;;1.00;99.90;;;;;;5113385;28;20404;-69
2021/12/06 02:41:29;;;;;;;0.40;0.30;;;1.10;99.90;;;;;;5112170;28;20380;-69
2021/12/06 02:43:56;;;;;;;0.40;0.20;;;1.10;99.90;;;;;;5112935;28;20400;-69
2021/12/06 02:46:22;;;;;;;0.40;0.20;;;1.20;99.90;;;;;;5112421;28;20456;-69
2021/12/06 02:48:49;;;;;;;0.40;0.20;;;1.20;99.90;;;;;;5112797;28;20381;-69
2021/12/06 02:51:16;;;;;;;0.40;0.20;;;1.40;99.90;;;;;;5112341;28;20460;-69
2021/12/06 02:53:42;;;;;;;0.40;0.20;;;1.30;99.90;;;;;;5112167;28;20388;-69
2021/12/06 02:58:56;;;;;;;0.40;0.20;;;1.30;99.90;;;;;;5112834;28;20383;-69
2021/12/06 03:01:28;;;;;;;0.40;0.20;;;1.50;99.90;;;;;;5112240;28;20457;-70
2021/12/06 03:03:55;;;;;;;0.40;0.20;;;1.50;99.90;;;;;;5112643;28;20368;-69
2021/12/06 03:06:21;;;;;;;0.40;0.30;;;1.50;99.90;;;;;;5112223;28;20832;-69
2021/12/06 03:09:05;;;;;;;0.40;0.20;;;1.60;99.90;;;;;;5093348;28;20422;-69
2021/12/06 03:11:35;;;;;;;0.40;0.20;;;1.60;99.90;;;;;;5111971;28;20407;-70
2021/12/06 03:14:01;;;;;;;0.40;0.20;;;1.60;99.90;;;;;;5112417;28;20408;-69
2021/12/06 03:16:27;;;;;;;0.40;0.20;;;1.40;99.90;;;;;;5112345;28;20730;-69
2021/12/06 03:18:55;;;;;;;0.40;0.20;;;1.40;99.90;;;;;;5093224;28;20383;-69
2021/12/06 03:21:22;;;;;;;0.40;0.30;;;1.60;99.90;;;;;;5111840;28;20396;-69
2021/12/06 03:23:49;;;;;;;0.40;0.20;;;1.70;99.90;;;;;;5093075;28;20373;-69
2021/12/06 03:26:15;;;;;;;0.70;0.70;;;1.50;99.90;;;;;;5111919;28;20819;-69
2021/12/06 03:28:44;;;;;;;0.40;0.20;;;1.60;99.90;;;;;;5093624;28;20380;-70
2021/12/06 03:31:10;;;;;;;0.40;0.20;;;1.70;99.90;;;;;;5111852;28;20453;-69
2021/12/06 03:33:38;;;;;;;0.40;0.20;;;1.80;99.90;;;;;;5111920;28;20852;-69
2021/12/06 03:36:06;;;;;;;0.40;0.20;;;1.80;99.90;;;;;;5097419;28;20370;-69
2021/12/06 03:38:33;;;;;;;0.40;0.22;;;1.60;99.90;;;;;;5091607;28;20381;-69
2021/12/06 03:40:59;;;;;;;0.40;0.20;;;1.50;99.90;;;;;;5090773;28;20382;-69
2021/12/06 03:43:25;;;;;;;0.40;0.20;;;1.50;99.90;;;;;;5091467;28;20499;-69
2021/12/06 03:45:50;;;;;;;0.40;0.20;;;1.50;99.90;;;;;;5091259;28;20374;-69
2021/12/06 03:48:16;;;;;;;0.40;0.20;;;1.40;99.90;;;;;;5090318;28;20677;-69
2021/12/06 03:50:44;;;;;;;0.40;0.20;;;1.50;99.90;;;;;;5091206;28;20421;-69
2021/12/06 03:53:10;;;;;;;0.40;0.20;;;1.50;99.90;;;;;;5090450;28;20378;-69
2021/12/06 03:55:35;;;;;;;0.40;0.20;;;1.50;99.90;;;;;;5091456;28;20390;-69
2021/12/06 03:58:01;;;;;;;0.40;0.30;;;1.50;99.90;;;;;;5091143;28;20378;-70
2021/12/06 04:00:27;;;;;;;0.40;0.20;;;1.50;99.90;;;;;;5072603;28;20473;-69
2021/12/06 04:02:54;;;;;;;0.40;0.20;;;1.50;99.90;;;;;;5091162;28;20530;-69
2021/12/06 04:05:19;;;;;;;0.40;0.20;;;1.50;99.90;;;;;;5090359;28;20382;-69
2021/12/06 04:07:46;;;;;;;0.40;0.20;;;1.50;99.90;;;;;;5091048;28;20397;-69
2021/12/06 04:10:11;;;;;;;0.40;0.20;;;1.60;99.90;;;;;;5072590;28;20401;-70
2021/12/06 04:12:38;;;;;;;0.40;0.20;;;1.50;99.90;;;;;;5090335;28;20869;-69
2021/12/06 04:15:07;;;;;;;0.40;0.20;;;1.50;99.90;;;;;;5090940;28;20370;-69
2021/12/06 04:17:34;;;;;;;0.40;0.20;;;1.40;99.90;;;;;;5090348;28;20781;-69
2021/12/06 04:20:00;;;;;;;0.40;0.30;;;1.50;99.90;;;;;;5090839;28;20687;-69
2021/12/06 04:22:25;;;;;;;0.40;0.20;;;1.50;99.90;;;;;;5090283;28;20404;-69
2021/12/06 04:24:51;;;;;;;0.40;0.20;;;1.50;99.90;;;;;;5090566;28;20735;-69
2021/12/06 04:27:19;;;;;;;0.40;0.20;;;1.50;99.90;;;;;;5090710;28;20904;-69
2021/12/06 04:29:51;;;;;;;0.40;0.20;;;1.50;99.90;;;;;;5089842;28;21120;-69
2021/12/06 04:32:18;;;;;;;0.40;0.20;;;1.60;99.90;;;;;;5090473;28;20381;-69
2021/12/06 04:34:43;;;;;;;0.40;0.28;;;1.70;99.90;;;;;;5091471;28;20383;-69
2021/12/06 04:37:10;;;;;;;0.70;0.50;;;1.60;99.90;;;;;;5111135;28;20380;-69
2021/12/06 04:39:37;;;;;;;0.40;0.20;;;1.50;99.90;;;;;;5109944;28;20940;-69
2021/12/06 04:42:03;;;;;;;0.40;0.20;;;1.50;99.90;;;;;;5111212;28;20426;-69
2021/12/06 04:44:29;;;;;;;0.40;0.20;;;1.50;99.90;;;;;;5111215;28;20795;-69
2021/12/06 04:46:55;;;;;;;0.40;0.20;;;1.60;99.90;;;;;;5109423;28;20573;-70
2021/12/06 04:49:25;;;;;;;0.70;0.50;;;1.60;99.90;;;;;;5110566;28;20468;-69
2021/12/06 04:51:52;;;;;;;0.40;0.20;;;1.60;99.90;;;;;;5109736;28;20408;-69
2021/12/06 04:54:21;;;;;;;0.40;0.20;;;1.50;99.90;;;;;;5110701;28;20404;-69
2021/12/06 04:56:59;;;;;;;0.40;0.20;;;1.50;99.90;;;;;;5109697;28;20372;-70
2021/12/06 04:59:28;;;;;;;0.40;0.20;;;1.50;99.90;;;;;;5110997;28;20369;-69
2021/12/06 05:01:58;;;;;;;0.50;0.40;;;1.60;99.90;;;;;;5110048;28;20466;-69
2021/12/06 05:04:28;;;;;;;0.40;0.20;;;1.70;99.90;;;;;;5110882;28;20395;-69
2021/12/06 05:06:59;;;;;;;0.40;0.20;;;1.60;99.90;;;;;;5110279;28;20422;-69
2021/12/06 05:09:31;;;;;;;0.40;0.20;;;1.60;99.90;;;;;;5110553;28;20455;-69
2021/12/06 05:11:57;;;;;;;0.40;0.20;;;1.60;99.90;;;;;;5109412;28;20879;-69
2021/12/06 05:14:24;;;;;;;0.40;0.20;;;1.70;99.90;;;;;;5110842;28;20455;-69
2021/12/06 05:16:51;;;;;;;0.40;0.30;;;1.60;99.90;;;;;;5110792;28;20440;-69
2021/12/06 05:19:16;;;;;;;0.40;0.20;;;1.70;99.90;;;;;;5109917;28;20433;-69
2021/12/06 05:21:42;;;;;;;0.40;0.20;;;1.70;99.90;;;;;;5110746;28;20384;-69
2021/12/06 05:24:09;;;;;;;0.40;0.20;;;1.70;99.90;;;;;;5109978;28;20375;-69
2021/12/06 05:26:36;;;;;;;0.40;0.20;;;1.70;99.90;;;;;;5110892;28;20694;-69
2021/12/06 05:29:06;;;;;;;0.40;0.20;;;1.70;99.90;;;;;;5110268;28;20380;-70
2021/12/06 05:31:38;;;;;;;0.40;0.20;;;1.60;99.90;;;;;;5110745;28;20423;-69
2021/12/06 05:34:09;;;;;;;0.40;0.20;;;1.70;99.90;;;;;;5110422;28;20379;-70
2021/12/06 05:36:35;;;;;;;0.60;0.60;;;1.70;99.90;;;;;;5110371;28;20396;-69
2021/12/06 05:39:01;;;;;;;0.40;0.20;;;1.60;99.90;;;;;;5110331;28;20383;-69
2021/12/06 05:41:27;;;;;;;0.40;0.30;;;1.60;99.90;;;;;;5110168;28;20433;-69
2021/12/06 05:43:53;;;;;;;0.40;0.20;;;1.60;99.90;;;;;;5110004;28;20884;-69
2021/12/06 05:46:19;;;;;;;0.40;0.30;;;1.60;99.90;;;;;;5109662;28;20372;-69
2021/12/06 05:48:44;;;;;;;0.40;0.20;;;1.60;99.90;;;;;;5075389;28;20852;-69
2021/12/06 05:51:10;;;;;;;0.40;0.30;;;1.60;99.90;;;;;;5088543;28;20418;-69
2021/12/06 05:53:36;;;;;;;0.40;0.20;;;1.70;99.90;;;;;;5089233;28;21059;-69
2021/12/06 05:56:03;;;;;;;0.40;0.20;;;1.70;99.90;;;;;;5089821;28;20409;-69
2021/12/06 05:58:28;;;;;;;1.40;0.60;;;1.70;99.90;;;;;;5088148;28;20410;-69
2021/12/06 06:00:56;;;;;;;0.40;0.20;;;1.70;99.90;;;;;;5091629;28;20523;-70
2021/12/06 06:03:22;;;;;;;0.40;0.20;;;1.80;99.90;;;;;;5110418;28;20379;-70
2021/12/06 06:05:48;;;;;;;0.40;0.28;;;1.90;99.90;;;;;;5114766;28;20430;-70
2021/12/06 06:08:14;;;;;;;0.40;0.20;;;1.80;99.90;;;;;;5113908;28;20759;-70
2021/12/06 06:10:40;;;;;;;0.40;0.30;;;1.90;99.90;;;;;;5111591;28;20408;-70
2021/12/06 06:13:07;;;;;;;0.40;0.20;;;1.90;99.90;;;;;;5113868;28;20462;-70
2021/12/06 06:15:34;;;;;;;0.40;0.20;;;1.90;99.90;;;;;;5113080;28;20383;-70
2021/12/06 06:18:00;;;;;;;0.40;0.30;;;1.90;99.90;;;;;;5113375;28;20928;-70
2021/12/06 06:20:26;;;;;;;0.40;0.20;;;1.90;99.90;;;;;;5112466;28;20903;-70
2021/12/06 06:22:52;;;;;;;0.40;0.30;;;2.10;99.90;;;;;;5112687;28;20368;-70
2021/12/06 06:25:18;;;;;;;0.40;0.20;;;2.10;99.90;;;;;;5113185;28;20384;-70
2021/12/06 06:27:44;;;;;;;0.40;0.20;;;2.10;99.90;;;;;;5110883;28;20420;-70
2021/12/06 06:30:11;;;;;;;0.40;0.20;;;2.10;99.90;;;;;;5113017;28;20450;-70
2021/12/06 06:32:37;;;;;;;0.40;0.20;;;2.20;99.90;;;;;;5112874;28;20368;-71
2021/12/06 06:35:05;;;;;;;0.50;0.50;;;2.20;99.90;;;;;;5107876;28;20381;-71
2021/12/06 06:37:31;;;;;;;0.40;0.20;;;2.10;99.90;;;;;;5092602;28;20377;-70
2021/12/06 06:39:57;;;;;;;0.40;0.20;;;2.10;99.90;;;;;;5090298;28;20447;-71
2021/12/06 06:42:23;;;;;;;0.40;0.20;;;2.10;99.90;;;;;;5091447;28;20996;-70
2021/12/06 06:44:51;;;;;;;0.40;0.20;;;2.10;99.90;;;;;;5091880;28;20386;-71
2021/12/06 06:47:18;;;;;;;0.40;0.20;;;2.20;99.90;;;;;;5092606;28;20458;-70
2021/12/06 06:49:44;;;;;;;0.50;0.50;;;2.30;99.90;;;;;;5096046;28;20415;-70
2021/12/06 06:52:09;;;;;;;0.40;0.20;;;2.30;99.90;;;;;;5112046;28;20426;-70
2021/12/06 06:54:35;;;;;;;0.40;0.20;;;2.30;99.90;;;;;;5112806;28;20395;-70
2021/12/06 06:57:02;;;;;;;0.40;0.20;;;2.20;99.90;;;;;;5093307;28;20977;-71
2021/12/06 06:59:27;;;;;;;0.40;0.20;;;2.20;99.90;;;;;;5111780;28;20469;-70
2021/12/06 07:01:53;;;;;;;0.40;0.30;;;2.30;99.90;;;;;;5112826;28;20472;-71
2021/12/06 07:04:19;;;;;;;0.40;0.20;;;2.30;99.90;;;;;;5111922;28;20375;-70
2021/12/06 07:06:45;;;;;;;0.40;0.20;;;2.30;99.90;;;;;;5112476;28;20391;-70
2021/12/06 07:09:11;;;;;;;0.40;0.30;;;2.30;99.90;;;;;;5093623;28;20380;-71
2021/12/06 07:11:37;;;;;;;0.40;0.20;;;2.20;99.90;;;;;;5112831;28;20765;-70
2021/12/06 07:14:03;;;;;;;0.40;0.20;;;2.30;99.90;;;;;;5111888;28;20493;-72
2021/12/06 07:16:30;;;;;;;0.40;0.20;;;2.30;99.90;;;;;;5112406;28;20376;-71
2021/12/06 07:18:57;;;;;;;0.40;0.20;;;2.30;99.90;;;;;;5112291;28;20405;-71
2021/12/06 07:21:23;;;;;;;0.40;0.30;;;2.30;99.90;;;;;;5112067;28;20404;-69
2021/12/06 07:23:49;;;;;;;0.40;0.30;;;2.40;99.90;;;;;;5093910;28;20943;-69
2021/12/06 07:26:18;;;;;;;0.40;0.20;;;2.40;99.90;;;;;;5111574;28;20418;-69
2021/12/06 07:28:45;;;;;;;0.40;0.20;;;2.50;99.90;;;;;;5112589;28;20415;-69
2021/12/06 07:31:14;;;;;;;0.40;0.20;;;2.50;99.90;;;;;;5093522;28;20400;-70
2021/12/06 07:33:42;;;;;;;0.40;0.30;;;2.50;99.90;;;;;;5112261;28;20395;-70
2021/12/06 07:36:09;;;;;;;0.40;0.20;;;2.40;99.90;;;;;;5098595;28;20409;-69
2021/12/06 07:38:37;;;;;;;0.40;0.20;;;2.30;99.90;;;;;;5091069;28;20726;-69
2021/12/06 07:41:07;;;;;;;0.40;0.40;;;2.40;99.90;;;;;;5091408;28;20934;-70
2021/12/06 07:43:34;;;;;;;0.40;0.28;;;2.30;99.90;;;;;;5090946;28;20397;-69
2021/12/06 07:46:01;;;;;;;0.40;0.20;;;2.20;99.90;;;;;;5091390;28;20378;-70
2021/12/06 07:48:27;;;;;;;0.40;0.20;;;2.30;99.90;;;;;;5090077;28;20375;-69
2021/12/06 07:50:53;;;;;;;0.40;0.20;;;2.40;99.90;;;;;;5091305;28;20414;-69
2021/12/06 07:53:19;;;;;;;0.40;0.20;;;2.30;99.90;;;;;;5091497;28;20713;-69
2021/12/06 07:55:44;;;;;;;0.40;0.20;;;2.30;99.90;;;;;;5090653;28;20382;-69
2021/12/06 07:58:10;;;;;;;0.40;0.20;;;2.30;99.90;;;;;;5091269;28;20374;-69
2021/12/06 08:00:44;;;;;;;0.95;0.85;;;2.40;99.90;;;;;;5090306;28;20869;-70
2021/12/06 08:03:10;;;;;;;1.10;0.60;;;2.40;99.90;;;;;;5091466;28;20393;-70
2021/12/06 08:05:38;;;;;;;0.40;0.30;;;2.40;99.90;;;;;;5090423;28;20495;-70
2021/12/06 08:08:17;;;;;;;0.40;0.20;;;2.30;99.90;;;;;;5091387;28;20420;-70
2021/12/06 08:10:46;;;;;;;1.00;0.90;;;2.40;99.90;;;;;;5072291;28;20885;-70
2021/12/06 08:13:14;;;;;;;0.40;0.30;;;2.40;99.90;;;;;;5090887;28;20696;-70
2021/12/06 08:15:40;;;;;;;0.40;0.20;;;2.40;99.90;;;;;;5090179;28;20715;-70
2021/12/06 08:18:07;;;;;;;0.40;0.20;;;2.40;99.90;;;;;;5091493;28;20430;-69
2021/12/06 08:20:33;;;;;;;0.40;0.20;;;2.50;99.90;;;;;;5090896;28;20413;-69
2021/12/06 08:23:00;;;;;;;0.40;0.20;;;2.50;99.90;;;;;;5072268;28;20593;-70
2021/12/06 08:25:26;;;;;;;0.40;0.20;;;2.50;99.90;;;;;;5090778;28;20397;-70
2021/12/06 08:27:52;;;;;;;0.40;0.20;;;2.60;99.90;;;;;;5090295;28;20378;-69
2021/12/06 08:30:22;;;;;;;0.40;0.20;;;2.60;99.90;;;;;;5090515;28;20764;-70
2021/12/06 08:32:50;;;;;;;0.50;0.40;;;2.60;99.90;;;;;;5090090;28;20381;-70
2021/12/06 08:35:16;;;;;;;0.40;0.30;;;2.50;99.90;;;;;;5097155;28;20388;-70
2021/12/06 08:37:43;;;;;;;0.40;0.20;;;2.60;99.90;;;;;;5111281;28;20368;-70
2021/12/06 08:40:10;;;;;;;0.40;0.20;;;2.50;99.90;;;;;;5110267;28;20456;-70
2021/12/06 08:42:36;;;;;;;0.40;0.20;;;2.50;99.90;;;;;;5111228;28;20380;-70
2021/12/06 08:45:03;;;;;;;0.50;0.50;;;2.60;99.90;;;;;;5110127;28;20365;-70
2021/12/06 08:47:29;;;;;;;0.40;0.20;;;2.70;99.90;;;;;;5110782;28;20463;-70
2021/12/06 08:49:55;;;;;;;0.40;0.20;;;2.70;99.90;;;;;;5109685;28;20862;-71
2021/12/06 08:52:21;;;;;;;0.40;0.20;;;2.80;99.90;;;;;;5111015;28;20376;-71
2021/12/06 08:54:47;;;;;;;0.40;0.20;;;2.80;99.90;;;;;;5110822;28;20457;-69
2021/12/06 08:57:13;;;;;;;0.40;0.20;;;2.80;99.90;;;;;;5091878;28;20464;-69
2021/12/06 08:59:39;;;;;;;0.40;0.20;;;2.80;99.90;;;;;;5110999;28;20377;-70
2021/12/06 09:02:05;;;;;;;0.47;0.35;;;2.90;99.90;;;;;;5091099;28;20449;-71
2021/12/06 09:04:34;;;;;;;0.40;0.20;;;2.90;99.90;;;;;;5111241;28;20380;-70
2021/12/06 09:07:01;;;;;;;0.40;0.20;;;2.90;99.90;;;;;;5110373;28;20463;-71
2021/12/06 09:09:27;;;;;;;0.40;0.20;;;3.00;99.90;;;;;;5110824;28;20372;-70
2021/12/06 09:11:56;;;;;;;0.40;0.22;;;2.90;99.90;;;;;;5110716;28;20451;-70
2021/12/06 09:14:24;;;;;;;0.40;0.20;;;3.00;99.90;;;;;;5109809;28;20994;-70
2021/12/06 09:16:49;;;;;;;0.40;0.20;;;3.00;99.90;;;;;;5110183;28;20403;-70
2021/12/06 09:19:16;;;;;;;0.40;0.20;;;3.00;99.90;;;;;;5109914;28;20376;-71
2021/12/06 09:21:43;;;;;;;0.40;0.20;;;3.00;99.90;;;;;;5110495;28;20408;-71
2021/12/06 09:24:14;;;;;;;0.40;0.20;;;3.10;99.90;;;;;;5110119;28;20383;-71
2021/12/06 09:26:42;;;;;;;0.40;0.28;;;3.10;99.90;;;;;;5110834;28;20382;-71
2021/12/06 09:29:07;;;;;;;1.10;0.70;;;3.00;99.90;;;;;;5110717;28;20460;-71
2021/12/06 09:31:33;;;;;;;0.40;0.20;;;3.30;99.90;;;;;;5109592;28;21031;-71
2021/12/06 09:33:59;;;;;;;0.40;0.20;;;3.20;99.90;;;;;;5095326;28;20419;-71
2021/12/06 09:36:26;;;;;;;0.40;0.20;;;3.40;99.90;;;;;;5097735;28;20386;-71
2021/12/06 09:38:51;;;;;;;0.70;0.70;;;3.40;99.90;;;;;;5094225;28;20427;-71
2021/12/06 09:41:25;;;;;;;0.40;0.20;;;3.50;99.90;;;;;;5093516;28;20773;-72
2021/12/06 09:43:54;;;;;;;0.40;0.20;;;3.40;99.90;;;;;;5094123;28;20381;-70
2021/12/06 09:46:20;;;;;;;0.40;0.30;;;3.50;99.90;;;;;;5093470;28;20484;-72
2021/12/06 09:48:48;;;;;;;0.40;0.20;;;3.40;99.90;;;;;;5094117;28;20378;-71
2021/12/06 09:51:21;;;;;;;0.40;0.20;;;3.60;99.90;;;;;;5093516;28;20808;-71
2021/12/06 09:53:48;;;;;;;0.40;0.30;;;3.50;99.90;;;;;;5097530;28;20386;-71
2021/12/06 09:56:23;;;;;;;0.40;0.20;;;3.50;99.90;;;;;;5114322;28;20376;-70
2021/12/06 09:58:51;;;;;;;0.40;0.20;;;3.60;99.90;;;;;;5113790;28;20380;-71
2021/12/06 10:01:29;;;;;;;0.40;0.20;;;3.50;99.90;;;;;;5079010;28;20392;-69
2021/12/06 10:03:58;;;;;;;0.45;0.43;;;3.70;99.90;;;;;;5114063;28;20364;-70
2021/12/06 10:06:26;;;;;;;0.40;0.20;;;3.60;99.90;;;;;;5113823;28;20390;-70
2021/12/06 10:08:53;;;;;;;0.40;0.20;;;3.60;99.90;;;;;;5113604;28;20381;-70
2021/12/06 10:11:23;;;;;;;0.40;0.20;;;3.90;99.90;;;;;;5114055;28;20925;-69
2021/12/06 10:13:50;;;;;;;0.40;0.20;;;3.90;99.90;;;;;;5094732;28;20380;-70
2021/12/06 10:16:17;;;;;;;0.40;0.30;;;4.10;99.90;;;;;;5113758;28;20377;-69
2021/12/06 10:18:42;;;;;;;0.40;0.20;;;4.00;99.90;;;;;;5112759;28;20873;-70
2021/12/06 10:21:09;;;;;;;0.40;0.20;;;4.00;99.90;;;;;;5113346;28;20441;-69
2021/12/06 10:23:37;;;;;;;0.40;0.30;;;4.20;99.90;;;;;;5113820;28;20384;-70
2021/12/06 10:26:06;;;;;;;0.40;0.20;;;4.20;99.90;;;;;;5113543;28;20454;-71
2021/12/06 10:28:34;;;;;;;0.40;0.30;;;4.30;99.90;;;;;;5113695;28;20384;-71
2021/12/06 10:31:04;;;;;;;0.40;0.20;;;4.40;99.90;;;;;;5112750;28;20412;-70
2021/12/06 10:33:34;;;;;;;0.40;0.30;;;4.40;99.90;;;;;;5113264;28;20927;-70
2021/12/06 10:36:08;;;;;;;0.40;0.20;;;4.50;99.90;;;;;;5112532;28;20843;-70
2021/12/06 10:38:38;;;;;;;1.50;0.80;;;4.60;99.90;;;;;;5113852;28;20388;-69
2021/12/06 10:41:10;;;;;;;0.40;0.20;;;4.70;99.90;;;;;;5111690;28;20381;-70
2021/12/06 10:43:37;;;;;;;0.40;0.20;;;4.60;99.90;;;;;;5113080;28;20453;-71
2021/12/06 10:46:05;;;;;;;0.40;0.30;;;4.90;99.90;;;;;;5112133;28;20377;-71
2021/12/06 10:48:36;;;;;;;0.40;0.30;;;4.90;99.90;;;;;;5100782;28;20493;-71
2021/12/06 10:51:16;;;;;;;0.50;0.40;;;5.00;99.90;;;;;;5091335;28;20426;-71
2021/12/06 10:53:59;;;;;;;0.40;0.20;;;5.20;99.90;;;;;;5092677;28;20378;-71
2021/12/06 10:56:36;;;;;;;0.40;0.30;;;4.70;99.90;;;;;;5092523;28;20437;-71
2021/12/06 10:59:05;;;;;;;0.40;0.20;;;4.60;99.90;;;;;;5073660;28;20455;-71
2021/12/06 11:01:33;;;;;;;0.40;0.20;;;4.40;99.90;;;;;;5092458;28;20390;-70
2021/12/06 11:04:01;;;;;;;0.40;0.30;;;4.80;99.90;;;;;;5091277;28;20736;-72
2021/12/06 11:06:46;;;;;;;0.40;0.20;;;4.90;99.90;;;;;;5092259;28;20378;-70
2021/12/06 11:09:19;;;;;;;0.40;0.20;;;4.70;99.90;;;;;;5091572;28;20381;-70
2021/12/06 11:11:51;;;;;;;0.40;0.25;;;4.70;99.90;;;;;;5090636;28;20442;-70
2021/12/06 11:14:35;;;;;;;0.40;0.33;;;4.70;99.90;;;;;;5073381;28;20445;-71
2021/12/06 11:17:07;;;;;;;0.40;0.20;;;5.10;99.90;;;;;;5092494;28;20425;-70
2021/12/06 11:19:34;;;;;;;0.40;0.20;;;4.90;99.90;;;;;;5092459;28;20386;-70
2021/12/06 11:22:06;;;;;;;0.45;0.28;;;4.90;99.90;;;;;;5092224;28;20418;-69
2021/12/06 11:24:40;;;;;;;2.70;1.50;;;4.90;99.90;;;;;;5091431;28;20393;-69
2021/12/06 11:27:09;;;;;;;0.40;0.20;;;4.80;99.90;;;;;;5091642;28;20729;-70
2021/12/06 11:29:36;;;;;;;0.40;0.22;;;4.60;99.90;;;;;;5091543;28;20393;-70
2021/12/06 11:32:05;;;;;;;0.40;0.20;;;4.60;99.90;;;;;;5091782;28;20448;-71
2021/12/06 11:34:50;;;;;;;0.80;0.80;;;4.80;99.90;;;;;;5090745;28;20389;-70
2021/12/06 11:37:32;;;;;;;0.40;0.30;;;5.00;99.90;;;;;;5091261;28;20385;-71
2021/12/06 11:40:04;;;;;;;0.40;0.38;;;5.30;99.90;;;;;;5091816;28;20473;-71
2021/12/06 11:42:30;;;;;;;0.40;0.30;;;5.50;99.90;;;;;;5072669;28;20463;-71
2021/12/06 11:44:58;;;;;;;0.40;0.20;;;5.30;99.90;;;;;;5091623;28;20872;-71
2021/12/06 11:47:24;;;;;;;0.60;0.60;;;5.50;99.90;;;;;;5088557;28;20901;-71
2021/12/06 11:49:56;;;;;;;0.40;0.40;;;5.60;99.90;;;;;;5091442;28;20413;-71
2021/12/06 11:52:28;;;;;;;0.40;0.20;;;5.50;99.90;;;;;;5091292;28;20421;-71
2021/12/06 11:55:01;;;;;;;0.40;0.20;;;5.20;99.90;;;;;;5091298;28;20470;-70
2021/12/06 11:57:33;;;;;;;0.40;0.30;;;5.20;99.90;;;;;;5090524;28;20679;-72
2021/12/06 12:00:17;;;;;;;0.40;0.30;;;5.20;99.90;;;;;;5081427;28;20504;-71
2021/12/06 12:02:56;;;;;;;0.40;0.28;;;5.30;99.90;;;;;;5104259;28;20402;-71
2021/12/06 12:05:22;;;;;;;0.40;0.30;;;5.20;99.90;;;;;;5094330;28;20382;-70
2021/12/06 12:07:55;;;;;;;0.40;0.30;;;5.30;99.90;;;;;;5078274;28;20966;-70
2021/12/06 12:10:47;;;;;;;0.70;0.70;;;5.20;99.90;;;;;;5094837;28;20467;-69
2021/12/06 12:13:29;;;;;;;0.40;0.30;;;5.20;99.90;;;;;;5092481;28;20395;-69
2021/12/06 12:15:59;;;;;;;0.40;0.20;;;5.10;99.90;;;;;;5100139;28;20593;-69
2021/12/06 12:18:27;;;;;;;0.40;0.30;;;5.10;99.90;;;;;;5105418;28;20609;-70
2021/12/06 12:20:54;;;;;;;0.40;0.40;;;5.00;99.90;;;;;;5074833;28;20394;-70
2021/12/06 12:23:21;;;;;;;0.40;0.20;;;4.90;99.90;;;;;;5097561;28;20503;-70
2021/12/06 12:25:59;;;;;;;0.40;0.20;;;4.90;99.90;;;;;;5106926;28;20376;-70
2021/12/06 12:28:30;;;;;;;0.43;0.22;;;5.00;99.90;;;;;;5095389;28;20476;-69
2021/12/06 12:30:58;;;;;;;0.40;0.20;;;5.10;99.90;;;;;;5100836;28;20417;-69
2021/12/06 12:33:24;;;;;;;0.50;0.50;;;5.30;99.90;;;;;;5085544;28;20398;-69
2021/12/06 12:36:03;;;;;;;0.40;0.20;;;5.30;99.90;;;;;;5093412;28;20386;-71
2021/12/06 12:38:36;;;;;;;1.10;0.90;;;5.60;99.90;;;;;;5095758;28;20368;-69
2021/12/06 12:41:07;;;;;;;0.43;0.38;;;5.70;99.90;;;;;;5110190;28;20879;-70
2021/12/06 12:43:51;;;;;;;0.40;0.30;;;5.70;99.90;;;;;;5096798;28;20428;-70
2021/12/06 12:46:22;;;;;;;0.80;0.80;;;5.50;99.90;;;;;;5093856;28;20373;-69
2021/12/06 12:48:53;;;;;;;0.40;0.20;;;5.50;99.90;;;;;;5103311;28;20378;-69
2021/12/06 12:51:35;;;;;;;0.40;0.30;;;5.60;99.90;;;;;;5101552;28;20736;-69
2021/12/06 12:54:25;;;;;;;0.40;0.20;;;5.50;99.90;;;;;;5093014;28;20390;-69
2021/12/06 12:57:00;;;;;;;0.40;0.30;;;5.40;99.90;;;;;;5102421;28;20405;-68
2021/12/06 12:59:32;;;;;;;1.10;1.00;;;5.50;99.90;;;;;;5103552;28;20387;-69
2021/12/06 13:02:17;;;;;;;0.40;0.20;;;5.40;99.90;;;;;;5093679;28;20387;-69
2021/12/06 13:04:58;;;;;;;0.40;0.40;;;5.40;99.90;;;;;;5103215;28;20394;-69
2021/12/06 13:07:27;;;;;;;0.40;0.40;;;5.20;99.90;;;;;;5104502;28;20488;-69
2021/12/06 13:09:54;;;;;;;0.40;0.20;;;5.30;99.90;;;;;;5100265;28;20404;-70
2021/12/06 13:12:20;;;;;;;0.40;0.20;;;5.40;99.90;;;;;;5108562;28;20439;-69
2021/12/06 13:14:55;;;;;;;0.60;0.60;;;5.30;99.90;;;;;;5097694;28;20374;-69
2021/12/06 13:17:41;;;;;;;0.40;0.20;;;5.30;99.90;;;;;;5108260;28;20763;-69
2021/12/06 13:20:14;;;;;;;0.40;0.20;;;5.30;99.90;;;;;;5106405;28;20883;-69
2021/12/06 13:22:50;;;;;;;0.40;0.20;;;5.40;99.90;;;;;;5097486;28;20405;-70